sensor_id;sensor_type;location;lat;lon;timestamp;temperature;humidity
7572;DHT22;3827;49.928;8.548;2023-12-22T00:01:36;4.90;99.90
7572;DHT22;3827;49.928;8.548;2023-12-22T00:04:03;4.80;99.90
7572;DHT22;3827;49.928;8.548;2023-12-22T00:06:33;4.80;99.90
7572;DHT22;3827;49.928;8.548;2023-12-22T00:09:00;4.80;99.90
7572;DHT22;3827;49.928;8.548;2023-12-22T00:11:27;4.80;99.90
7572;DHT22;3827;49.928;8.548;2023-12-22T00:13:53;4.80;99.90
7572;DHT22;3827;49.928;8.548;2023-12-22T00:16:20;4.70;99.90
7572;DHT22;3827;49.928;8.548;2023-12-22T00:18:47;4.70;99.90
7572;DHT22;3827;49.928;8.548;2023-12-22T00:21:13;4.70;99.90
7572;DHT22;3827;49.928;8.548;2023-12-22T00:23:41;5.70;99.90
7572;DHT22;3827;49.928;8.548;2023-12-22T00:26:08;4.50;99.90
7572;DHT22;3827;49.928;8.548;2023-12-22T00:28:35;4.60;99.90
7572;DHT22;3827;49.928;8.548;2023-12-22T00:31:02;4.60;99.90
7572;DHT22;3827;49.928;8.548;2023-12-22T00:33:28;4.60;99.90
7572;DHT22;3827;49.928;8.548;2023-12-22T00:35:55;4.70;99.90
7572;DHT22;3827;49.928;8.548;2023-12-22T00:38:22;4.70;99.90
7572;DHT22;3827;49.928;8.548;2023-12-22T00:40:50;4.60;99.90
7572;DHT22;3827;49.928;8.548;2023-12-22T00:43:17;4.60;99.90
7572;DHT22;3827;49.928;8.548;2023-12-22T00:45:43;4.50;99.90
7572;DHT22;3827;49.928;8.548;2023-12-22T00:48:10;4.40;99.90
7572;DHT22;3827;49.928;8.548;2023-12-22T00:50:37;4.60;99.90
7572;DHT22;3827;49.928;8.548;2023-12-22T00:53:03;4.60;99.90
7572;DHT22;3827;49.928;8.548;2023-12-22T00:55:30;5.20;99.90
7572;DHT22;3827;49.928;8.548;2023-12-22T00:57:59;4.60;99.90
7572;DHT22;3827;49.928;8.548;2023-12-22T01:00:25;4.70;99.90
7572;DHT22;3827;49.928;8.548;2023-12-22T01:02:52;4.70;99.90
7572;DHT22;3827;49.928;8.548;2023-12-22T01:05:19;4.90;99.90
7572;DHT22;3827;49.928;8.548;2023-12-22T01:07:46;4.90;99.90
7572;DHT22;3827;49.928;8.548;2023-12-22T01:10:12;5.20;99.90
7572;DHT22;3827;49.928;8.548;2023-12-22T01:12:39;5.30;99.90
7572;DHT22;3827;49.928;8.548;2023-12-22T01:15:08;5.50;99.90
7572;DHT22;3827;49.928;8.548;2023-12-22T01:17:34;5.50;99.90
7572;DHT22;3827;49.928;8.548;2023-12-22T01:20:03;5.60;99.90
7572;DHT22;3827;49.928;8.548;2023-12-22T01:22:29;5.70;99.90
7572;DHT22;3827;49.928;8.548;2023-12-22T01:24:58;5.80;99.90
7572;DHT22;3827;49.928;8.548;2023-12-22T01:27:26;5.80;99.90
7572;DHT22;3827;49.928;8.548;2023-12-22T01:29:53;5.90;99.90
7572;DHT22;3827;49.928;8.548;2023-12-22T01:32:21;6.00;99.90
7572;DHT22;3827;49.928;8.548;2023-12-22T01:34:48;5.90;99.90
7572;DHT22;3827;49.928;8.548;2023-12-22T01:37:15;5.90;99.90
7572;DHT22;3827;49.928;8.548;2023-12-22T01:39:41;5.90;99.90
7572;DHT22;3827;49.928;8.548;2023-12-22T01:42:08;5.70;99.90
7572;DHT22;3827;49.928;8.548;2023-12-22T01:44:35;5.60;99.90
7572;DHT22;3827;49.928;8.548;2023-12-22T01:47:02;5.50;99.90
7572;DHT22;3827;49.928;8.548;2023-12-22T01:49:30;5.60;99.90
7572;DHT22;3827;49.928;8.548;2023-12-22T01:51:57;5.50;99.90
7572;DHT22;3827;49.928;8.548;2023-12-22T01:54:24;5.40;99.90
7572;DHT22;3827;49.928;8.548;2023-12-22T01:56:51;5.40;99.90
7572;DHT22;3827;49.928;8.548;2023-12-22T01:59:18;5.30;99.90
7572;DHT22;3827;49.928;8.548;2023-12-22T02:01:44;5.30;99.90
7572;DHT22;3827;49.928;8.548;2023-12-22T02:04:11;5.20;99.90
7572;DHT22;3827;49.928;8.548;2023-12-22T02:06:40;5.20;99.90
7572;DHT22;3827;49.928;8.548;2023-12-22T02:09:08;5.20;99.90
7572;DHT22;3827;49.928;8.548;2023-12-22T02:11:36;5.20;99.90
7572;DHT22;3827;49.928;8.548;2023-12-22T02:14:04;5.20;99.90
7572;DHT22;3827;49.928;8.548;2023-12-22T02:16:41;5.30;99.90
7572;DHT22;3827;49.928;8.548;2023-12-22T02:19:30;5.20;99.90
7572;DHT22;3827;49.928;8.548;2023-12-22T02:22:05;5.10;99.90
7572;DHT22;3827;49.928;8.548;2023-12-22T02:24:33;5.10;99.90
7572;DHT22;3827;49.928;8.548;2023-12-22T02:27:04;5.20;99.90
7572;DHT22;3827;49.928;8.548;2023-12-22T02:29:35;5.60;99.90
7572;DHT22;3827;49.928;8.548;2023-12-22T02:32:07;5.20;99.90
7572;DHT22;3827;49.928;8.548;2023-12-22T02:34:35;5.10;99.90
7572;DHT22;3827;49.928;8.548;2023-12-22T02:37:05;5.10;99.90
7572;DHT22;3827;49.928;8.548;2023-12-22T02:39:35;5.10;99.90
7572;DHT22;3827;49.928;8.548;2023-12-22T02:42:03;5.10;99.90
7572;DHT22;3827;49.928;8.548;2023-12-22T02:44:30;5.00;99.90
7572;DHT22;3827;49.928;8.548;2023-12-22T02:46:57;4.90;99.90
7572;DHT22;3827;49.928;8.548;2023-12-22T02:49:24;4.90;99.90
7572;DHT22;3827;49.928;8.548;2023-12-22T02:51:50;4.80;99.90
7572;DHT22;3827;49.928;8.548;2023-12-22T02:54:17;4.90;99.90
7572;DHT22;3827;49.928;8.548;2023-12-22T02:56:47;4.90;99.90
7572;DHT22;3827;49.928;8.548;2023-12-22T02:59:13;4.80;99.90
7572;DHT22;3827;49.928;8.548;2023-12-22T03:01:40;4.90;99.90
7572;DHT22;3827;49.928;8.548;2023-12-22T03:04:07;5.00;99.90
7572;DHT22;3827;49.928;8.548;2023-12-22T03:06:33;5.10;99.90
7572;DHT22;3827;49.928;8.548;2023-12-22T03:09:00;5.10;99.90
7572;DHT22;3827;49.928;8.548;2023-12-22T03:11:28;5.00;99.90
7572;DHT22;3827;49.928;8.548;2023-12-22T03:13:56;5.00;99.90
7572;DHT22;3827;49.928;8.548;2023-12-22T03:16:22;5.00;99.90
7572;DHT22;3827;49.928;8.548;2023-12-22T03:18:49;5.10;99.90
7572;DHT22;3827;49.928;8.548;2023-12-22T03:21:17;5.00;99.90
7572;DHT22;3827;49.928;8.548;2023-12-22T03:23:44;5.00;99.90
7572;DHT22;3827;49.928;8.548;2023-12-22T03:26:11;5.00;99.90
7572;DHT22;3827;49.928;8.548;2023-12-22T03:28:38;5.00;99.90
7572;DHT22;3827;49.928;8.548;2023-12-22T03:31:06;5.00;99.90
7572;DHT22;3827;49.928;8.548;2023-12-22T03:33:33;4.90;99.90
7572;DHT22;3827;49.928;8.548;2023-12-22T03:35:59;5.00;99.90
7572;DHT22;3827;49.928;8.548;2023-12-22T03:38:26;5.00;99.90
7572;DHT22;3827;49.928;8.548;2023-12-22T03:40:53;5.00;99.90
7572;DHT22;3827;49.928;8.548;2023-12-22T03:43:20;5.00;99.90
7572;DHT22;3827;49.928;8.548;2023-12-22T03:45:46;5.00;99.90
7572;DHT22;3827;49.928;8.548;2023-12-22T03:48:14;5.00;99.90
7572;DHT22;3827;49.928;8.548;2023-12-22T03:50:41;5.00;99.90
7572;DHT22;3827;49.928;8.548;2023-12-22T03:53:09;5.00;99.90
7572;DHT22;3827;49.928;8.548;2023-12-22T03:55:35;5.20;99.90
7572;DHT22;3827;49.928;8.548;2023-12-22T03:58:02;5.30;99.90
7572;DHT22;3827;49.928;8.548;2023-12-22T04:00:30;5.50;99.90
7572;DHT22;3827;49.928;8.548;2023-12-22T04:02:57;5.60;99.90
7572;DHT22;3827;49.928;8.548;2023-12-22T04:05:25;5.60;99.90
7572;DHT22;3827;49.928;8.548;2023-12-22T04:07:51;5.80;99.90
7572;DHT22;3827;49.928;8.548;2023-12-22T04:10:18;5.70;99.90
7572;DHT22;3827;49.928;8.548;2023-12-22T04:12:45;5.70;99.90
7572;DHT22;3827;49.928;8.548;2023-12-22T04:15:12;5.90;99.90
7572;DHT22;3827;49.928;8.548;2023-12-22T04:17:39;5.80;99.90
7572;DHT22;3827;49.928;8.548;2023-12-22T04:20:07;4.60;99.90
7572;DHT22;3827;49.928;8.548;2023-12-22T04:22:35;5.70;99.90
7572;DHT22;3827;49.928;8.548;2023-12-22T04:25:02;6.20;99.90
7572;DHT22;3827;49.928;8.548;2023-12-22T04:27:28;5.80;99.90
7572;DHT22;3827;49.928;8.548;2023-12-22T04:29:55;5.90;99.90
7572;DHT22;3827;49.928;8.548;2023-12-22T04:32:22;5.90;99.90
7572;DHT22;3827;49.928;8.548;2023-12-22T04:34:49;5.90;99.90
7572;DHT22;3827;49.928;8.548;2023-12-22T04:37:15;5.90;99.90
7572;DHT22;3827;49.928;8.548;2023-12-22T04:39:43;6.00;99.90
7572;DHT22;3827;49.928;8.548;2023-12-22T04:42:10;5.90;99.90
7572;DHT22;3827;49.928;8.548;2023-12-22T04:44:37;5.90;99.90
7572;DHT22;3827;49.928;8.548;2023-12-22T04:47:04;6.00;99.90
7572;DHT22;3827;49.928;8.548;2023-12-22T04:49:30;6.00;99.90
7572;DHT22;3827;49.928;8.548;2023-12-22T04:51:57;6.00;99.90
7572;DHT22;3827;49.928;8.548;2023-12-22T04:54:24;6.80;99.90
7572;DHT22;3827;49.928;8.548;2023-12-22T04:56:53;6.10;99.90
7572;DHT22;3827;49.928;8.548;2023-12-22T04:59:19;6.10;99.90
7572;DHT22;3827;49.928;8.548;2023-12-22T05:01:46;6.10;99.90
7572;DHT22;3827;49.928;8.548;2023-12-22T05:04:13;6.10;99.90
7572;DHT22;3827;49.928;8.548;2023-12-22T05:06:48;6.00;99.90
7572;DHT22;3827;49.928;8.548;2023-12-22T05:09:32;6.10;99.90
7572;DHT22;3827;49.928;8.548;2023-12-22T05:12:00;6.10;99.90
7572;DHT22;3827;49.928;8.548;2023-12-22T05:14:26;6.20;99.90
7572;DHT22;3827;49.928;8.548;2023-12-22T05:16:53;6.30;99.90
7572;DHT22;3827;49.928;8.548;2023-12-22T05:19:21;6.30;99.90
7572;DHT22;3827;49.928;8.548;2023-12-22T05:22:04;6.40;99.90
7572;DHT22;3827;49.928;8.548;2023-12-22T05:24:41;6.40;99.90
7572;DHT22;3827;49.928;8.548;2023-12-22T05:27:09;6.20;99.90
7572;DHT22;3827;49.928;8.548;2023-12-22T05:29:35;6.00;99.90
7572;DHT22;3827;49.928;8.548;2023-12-22T05:32:02;5.90;99.90
7572;DHT22;3827;49.928;8.548;2023-12-22T05:34:29;5.70;99.90
7572;DHT22;3827;49.928;8.548;2023-12-22T05:36:56;6.00;99.90
7572;DHT22;3827;49.928;8.548;2023-12-22T05:39:23;5.90;99.90
7572;DHT22;3827;49.928;8.548;2023-12-22T05:41:50;6.00;99.90
7572;DHT22;3827;49.928;8.548;2023-12-22T05:44:18;5.90;99.90
7572;DHT22;3827;49.928;8.548;2023-12-22T05:46:44;5.50;99.90
7572;DHT22;3827;49.928;8.548;2023-12-22T05:49:11;5.40;99.90
7572;DHT22;3827;49.928;8.548;2023-12-22T05:51:38;5.30;99.90
7572;DHT22;3827;49.928;8.548;2023-12-22T05:54:06;5.40;99.90
7572;DHT22;3827;49.928;8.548;2023-12-22T05:56:33;5.30;99.90
7572;DHT22;3827;49.928;8.548;2023-12-22T05:59:00;5.40;99.90
7572;DHT22;3827;49.928;8.548;2023-12-22T06:01:27;5.60;99.90
7572;DHT22;3827;49.928;8.548;2023-12-22T06:03:54;5.80;99.90
7572;DHT22;3827;49.928;8.548;2023-12-22T06:06:21;5.80;99.90
7572;DHT22;3827;49.928;8.548;2023-12-22T06:08:48;5.90;99.90
7572;DHT22;3827;49.928;8.548;2023-12-22T06:11:15;5.80;99.90
7572;DHT22;3827;49.928;8.548;2023-12-22T06:13:42;5.80;99.90
7572;DHT22;3827;49.928;8.548;2023-12-22T06:16:11;6.00;99.90
7572;DHT22;3827;49.928;8.548;2023-12-22T06:18:40;5.90;99.90
7572;DHT22;3827;49.928;8.548;2023-12-22T06:21:08;5.90;99.90
7572;DHT22;3827;49.928;8.548;2023-12-22T06:23:34;5.90;99.90
7572;DHT22;3827;49.928;8.548;2023-12-22T06:26:01;5.90;99.90
7572;DHT22;3827;49.928;8.548;2023-12-22T06:28:28;5.70;99.90
7572;DHT22;3827;49.928;8.548;2023-12-22T06:30:55;5.60;99.90
7572;DHT22;3827;49.928;8.548;2023-12-22T06:33:22;5.60;99.90
7572;DHT22;3827;49.928;8.548;2023-12-22T06:35:50;5.50;99.90
7572;DHT22;3827;49.928;8.548;2023-12-22T06:38:19;5.50;99.90
7572;DHT22;3827;49.928;8.548;2023-12-22T06:40:45;5.40;99.90
7572;DHT22;3827;49.928;8.548;2023-12-22T06:43:13;5.40;99.90
7572;DHT22;3827;49.928;8.548;2023-12-22T06:45:40;5.50;99.90
7572;DHT22;3827;49.928;8.548;2023-12-22T06:48:07;5.30;99.90
7572;DHT22;3827;49.928;8.548;2023-12-22T06:50:35;5.30;99.90
7572;DHT22;3827;49.928;8.548;2023-12-22T06:53:03;5.10;99.90
7572;DHT22;3827;49.928;8.548;2023-12-22T06:55:30;5.10;99.90
7572;DHT22;3827;49.928;8.548;2023-12-22T06:57:57;5.00;99.90
7572;DHT22;3827;49.928;8.548;2023-12-22T07:00:24;4.90;99.90
7572;DHT22;3827;49.928;8.548;2023-12-22T07:02:50;4.80;99.90
7572;DHT22;3827;49.928;8.548;2023-12-22T07:05:33;4.70;99.90
7572;DHT22;3827;49.928;8.548;2023-12-22T07:08:04;4.60;99.90
7572;DHT22;3827;49.928;8.548;2023-12-22T07:10:31;4.70;99.90
7572;DHT22;3827;49.928;8.548;2023-12-22T07:12:58;4.80;99.90
7572;DHT22;3827;49.928;8.548;2023-12-22T07:15:25;4.90;99.90
7572;DHT22;3827;49.928;8.548;2023-12-22T07:17:51;5.00;99.90
7572;DHT22;3827;49.928;8.548;2023-12-22T07:20:18;5.10;99.90
7572;DHT22;3827;49.928;8.548;2023-12-22T07:22:45;5.20;99.90
7572;DHT22;3827;49.928;8.548;2023-12-22T07:25:13;5.20;99.90
7572;DHT22;3827;49.928;8.548;2023-12-22T07:27:40;5.20;99.90
7572;DHT22;3827;49.928;8.548;2023-12-22T07:30:07;5.40;99.90
7572;DHT22;3827;49.928;8.548;2023-12-22T07:32:37;5.40;99.90
7572;DHT22;3827;49.928;8.548;2023-12-22T07:35:04;5.90;99.90
7572;DHT22;3827;49.928;8.548;2023-12-22T07:37:31;5.50;99.90
7572;DHT22;3827;49.928;8.548;2023-12-22T07:39:58;5.50;99.90
7572;DHT22;3827;49.928;8.548;2023-12-22T07:42:27;5.60;99.90
7572;DHT22;3827;49.928;8.548;2023-12-22T07:44:53;5.50;99.90
7572;DHT22;3827;49.928;8.548;2023-12-22T07:47:20;5.60;99.90
7572;DHT22;3827;49.928;8.548;2023-12-22T07:49:47;5.60;99.90
7572;DHT22;3827;49.928;8.548;2023-12-22T07:52:15;5.70;99.90
7572;DHT22;3827;49.928;8.548;2023-12-22T07:54:42;5.70;99.90
7572;DHT22;3827;49.928;8.548;2023-12-22T07:57:09;5.80;99.90
7572;DHT22;3827;49.928;8.548;2023-12-22T07:59:37;5.90;99.90
7572;DHT22;3827;49.928;8.548;2023-12-22T08:02:04;6.10;99.90
7572;DHT22;3827;49.928;8.548;2023-12-22T08:04:31;6.30;99.90
7572;DHT22;3827;49.928;8.548;2023-12-22T08:07:01;6.70;99.90
7572;DHT22;3827;49.928;8.548;2023-12-22T08:09:28;6.80;99.90
7572;DHT22;3827;49.928;8.548;2023-12-22T08:11:55;6.90;99.90
7572;DHT22;3827;49.928;8.548;2023-12-22T08:14:22;6.90;99.90
7572;DHT22;3827;49.928;8.548;2023-12-22T08:16:50;7.00;99.90
7572;DHT22;3827;49.928;8.548;2023-12-22T08:19:17;7.10;99.90
7572;DHT22;3827;49.928;8.548;2023-12-22T08:21:45;7.10;99.90
7572;DHT22;3827;49.928;8.548;2023-12-22T08:24:12;7.20;99.90
7572;DHT22;3827;49.928;8.548;2023-12-22T08:26:39;7.30;99.90
7572;DHT22;3827;49.928;8.548;2023-12-22T08:29:06;7.20;99.90
7572;DHT22;3827;49.928;8.548;2023-12-22T08:31:33;7.10;99.90
7572;DHT22;3827;49.928;8.548;2023-12-22T08:34:02;6.80;99.90
7572;DHT22;3827;49.928;8.548;2023-12-22T08:36:28;6.60;99.90
7572;DHT22;3827;49.928;8.548;2023-12-22T08:38:55;7.00;99.90
7572;DHT22;3827;49.928;8.548;2023-12-22T08:41:22;6.40;99.90
7572;DHT22;3827;49.928;8.548;2023-12-22T08:43:49;6.30;99.90
7572;DHT22;3827;49.928;8.548;2023-12-22T08:46:16;6.10;99.90
7572;DHT22;3827;49.928;8.548;2023-12-22T08:48:43;6.10;99.90
7572;DHT22;3827;49.928;8.548;2023-12-22T08:51:12;6.10;99.90
7572;DHT22;3827;49.928;8.548;2023-12-22T08:53:39;6.00;99.90
7572;DHT22;3827;49.928;8.548;2023-12-22T08:56:06;6.00;99.90
7572;DHT22;3827;49.928;8.548;2023-12-22T08:58:33;6.00;99.90
7572;DHT22;3827;49.928;8.548;2023-12-22T09:01:00;6.00;99.90
7572;DHT22;3827;49.928;8.548;2023-12-22T09:03:27;6.50;99.90
7572;DHT22;3827;49.928;8.548;2023-12-22T09:05:56;6.60;99.90
7572;DHT22;3827;49.928;8.548;2023-12-22T09:08:24;6.00;99.90
7572;DHT22;3827;49.928;8.548;2023-12-22T09:10:53;6.00;99.90
7572;DHT22;3827;49.928;8.548;2023-12-22T09:13:19;6.00;99.90
7572;DHT22;3827;49.928;8.548;2023-12-22T09:15:46;6.00;99.90
7572;DHT22;3827;49.928;8.548;2023-12-22T09:18:14;6.00;99.90
7572;DHT22;3827;49.928;8.548;2023-12-22T09:20:41;5.90;99.90
7572;DHT22;3827;49.928;8.548;2023-12-22T09:23:08;6.00;99.90
7572;DHT22;3827;49.928;8.548;2023-12-22T09:25:37;6.00;99.90
7572;DHT22;3827;49.928;8.548;2023-12-22T09:28:04;6.00;99.90
7572;DHT22;3827;49.928;8.548;2023-12-22T09:30:31;6.00;99.90
7572;DHT22;3827;49.928;8.548;2023-12-22T09:32:58;6.10;99.90
7572;DHT22;3827;49.928;8.548;2023-12-22T09:35:25;6.10;99.90
7572;DHT22;3827;49.928;8.548;2023-12-22T09:37:52;6.10;99.90
7572;DHT22;3827;49.928;8.548;2023-12-22T09:40:19;6.20;99.90
7572;DHT22;3827;49.928;8.548;2023-12-22T09:42:50;6.10;99.90
7572;DHT22;3827;49.928;8.548;2023-12-22T09:45:20;6.20;99.90
7572;DHT22;3827;49.928;8.548;2023-12-22T09:47:48;6.20;99.90
7572;DHT22;3827;49.928;8.548;2023-12-22T09:50:15;6.20;99.90
7572;DHT22;3827;49.928;8.548;2023-12-22T09:52:42;6.20;99.90
7572;DHT22;3827;49.928;8.548;2023-12-22T09:55:12;7.10;99.90
7572;DHT22;3827;49.928;8.548;2023-12-22T09:57:39;6.20;99.90
7572;DHT22;3827;49.928;8.548;2023-12-22T10:00:09;6.30;99.90
7572;DHT22;3827;49.928;8.548;2023-12-22T10:02:39;6.30;99.90
7572;DHT22;3827;49.928;8.548;2023-12-22T10:05:07;7.20;99.90
7572;DHT22;3827;49.928;8.548;2023-12-22T10:07:34;6.40;99.90
7572;DHT22;3827;49.928;8.548;2023-12-22T10:10:04;6.40;99.90
7572;DHT22;3827;49.928;8.548;2023-12-22T10:12:33;6.50;99.90
7572;DHT22;3827;49.928;8.548;2023-12-22T10:15:01;6.60;99.90
7572;DHT22;3827;49.928;8.548;2023-12-22T10:17:30;6.70;99.90
7572;DHT22;3827;49.928;8.548;2023-12-22T10:19:57;6.80;99.90
7572;DHT22;3827;49.928;8.548;2023-12-22T10:22:24;7.10;99.90
7572;DHT22;3827;49.928;8.548;2023-12-22T10:24:51;7.00;99.90
7572;DHT22;3827;49.928;8.548;2023-12-22T10:27:18;7.10;99.90
7572;DHT22;3827;49.928;8.548;2023-12-22T10:29:48;7.20;99.90
7572;DHT22;3827;49.928;8.548;2023-12-22T10:32:16;7.30;99.90
7572;DHT22;3827;49.928;8.548;2023-12-22T10:34:45;7.30;99.90
7572;DHT22;3827;49.928;8.548;2023-12-22T10:37:11;7.40;99.90
7572;DHT22;3827;49.928;8.548;2023-12-22T10:39:39;7.50;99.90
7572;DHT22;3827;49.928;8.548;2023-12-22T10:42:06;7.50;99.90
7572;DHT22;3827;49.928;8.548;2023-12-22T10:44:33;7.50;99.90
7572;DHT22;3827;49.928;8.548;2023-12-22T10:47:00;7.60;99.90
7572;DHT22;3827;49.928;8.548;2023-12-22T10:49:28;7.60;99.90
7572;DHT22;3827;49.928;8.548;2023-12-22T10:51:56;7.70;99.90
7572;DHT22;3827;49.928;8.548;2023-12-22T10:54:23;7.70;99.90
7572;DHT22;3827;49.928;8.548;2023-12-22T10:56:50;7.80;99.90
7572;DHT22;3827;49.928;8.548;2023-12-22T10:59:18;8.00;99.90
7572;DHT22;3827;49.928;8.548;2023-12-22T11:01:50;8.00;99.90
7572;DHT22;3827;49.928;8.548;2023-12-22T11:04:20;8.00;99.90
7572;DHT22;3827;49.928;8.548;2023-12-22T11:06:49;8.10;99.90
7572;DHT22;3827;49.928;8.548;2023-12-22T11:09:21;8.10;99.90
7572;DHT22;3827;49.928;8.548;2023-12-22T11:11:51;8.00;99.90
7572;DHT22;3827;49.928;8.548;2023-12-22T11:14:19;8.10;99.90
7572;DHT22;3827;49.928;8.548;2023-12-22T11:16:47;8.10;99.90
7572;DHT22;3827;49.928;8.548;2023-12-22T11:19:15;8.10;99.90
7572;DHT22;3827;49.928;8.548;2023-12-22T11:21:43;8.20;99.90
7572;DHT22;3827;49.928;8.548;2023-12-22T11:24:11;8.20;99.90
7572;DHT22;3827;49.928;8.548;2023-12-22T11:26:41;8.20;99.90
7572;DHT22;3827;49.928;8.548;2023-12-22T11:29:09;8.20;99.90
7572;DHT22;3827;49.928;8.548;2023-12-22T11:31:37;8.20;99.90
7572;DHT22;3827;49.928;8.548;2023-12-22T11:34:05;8.50;99.90
7572;DHT22;3827;49.928;8.548;2023-12-22T11:36:33;8.30;99.90
7572;DHT22;3827;49.928;8.548;2023-12-22T11:39:00;8.30;99.90
7572;DHT22;3827;49.928;8.548;2023-12-22T11:41:29;8.30;99.90
7572;DHT22;3827;49.928;8.548;2023-12-22T11:43:58;8.30;99.90
7572;DHT22;3827;49.928;8.548;2023-12-22T11:46:26;8.30;99.90
7572;DHT22;3827;49.928;8.548;2023-12-22T11:48:55;8.40;99.90
7572;DHT22;3827;49.928;8.548;2023-12-22T11:51:22;8.40;99.90
7572;DHT22;3827;49.928;8.548;2023-12-22T11:53:51;8.50;99.90
7572;DHT22;3827;49.928;8.548;2023-12-22T11:56:18;8.40;99.90
7572;DHT22;3827;49.928;8.548;2023-12-22T11:58:47;8.30;99.90
7572;DHT22;3827;49.928;8.548;2023-12-22T12:01:20;8.10;99.90
7572;DHT22;3827;49.928;8.548;2023-12-22T12:03:49;8.10;99.90
7572;DHT22;3827;49.928;8.548;2023-12-22T12:06:23;8.10;99.90
7572;DHT22;3827;49.928;8.548;2023-12-22T12:08:57;8.00;99.90
7572;DHT22;3827;49.928;8.548;2023-12-22T12:14:31;8.00;99.90
7572;DHT22;3827;49.928;8.548;2023-12-22T12:17:05;8.00;99.90
7572;DHT22;3827;49.928;8.548;2023-12-22T12:19:34;8.10;99.90
7572;DHT22;3827;49.928;8.548;2023-12-22T12:22:01;9.00;99.90
7572;DHT22;3827;49.928;8.548;2023-12-22T12:24:28;8.10;99.90
7572;DHT22;3827;49.928;8.548;2023-12-22T12:26:55;8.00;99.90
7572;DHT22;3827;49.928;8.548;2023-12-22T12:29:22;8.10;99.90
7572;DHT22;3827;49.928;8.548;2023-12-22T12:31:49;8.10;99.90
7572;DHT22;3827;49.928;8.548;2023-12-22T12:34:17;8.20;99.90
7572;DHT22;3827;49.928;8.548;2023-12-22T12:36:46;8.20;99.90
7572;DHT22;3827;49.928;8.548;2023-12-22T12:39:15;8.30;99.90
7572;DHT22;3827;49.928;8.548;2023-12-22T12:41:43;8.30;99.90
7572;DHT22;3827;49.928;8.548;2023-12-22T12:44:10;8.30;99.90
7572;DHT22;3827;49.928;8.548;2023-12-22T12:46:39;8.30;99.90
7572;DHT22;3827;49.928;8.548;2023-12-22T12:49:09;8.40;99.90
7572;DHT22;3827;49.928;8.548;2023-12-22T12:51:38;8.40;99.90
7572;DHT22;3827;49.928;8.548;2023-12-22T12:54:06;9.00;99.90
7572;DHT22;3827;49.928;8.548;2023-12-22T12:56:37;8.50;99.90
7572;DHT22;3827;49.928;8.548;2023-12-22T12:59:07;8.60;99.90
7572;DHT22;3827;49.928;8.548;2023-12-22T13:01:38;9.40;99.90
7572;DHT22;3827;49.928;8.548;2023-12-22T13:04:05;9.20;99.90
7572;DHT22;3827;49.928;8.548;2023-12-22T13:06:32;8.70;99.90
7572;DHT22;3827;49.928;8.548;2023-12-22T13:09:00;8.80;99.90
7572;DHT22;3827;49.928;8.548;2023-12-22T13:11:29;8.80;99.90
7572;DHT22;3827;49.928;8.548;2023-12-22T13:13:57;8.90;99.90
7572;DHT22;3827;49.928;8.548;2023-12-22T13:16:25;8.90;99.90
7572;DHT22;3827;49.928;8.548;2023-12-22T13:18:55;9.00;99.90
7572;DHT22;3827;49.928;8.548;2023-12-22T13:21:23;9.10;99.90
7572;DHT22;3827;49.928;8.548;2023-12-22T13:24:09;9.20;99.90
7572;DHT22;3827;49.928;8.548;2023-12-22T13:26:36;9.30;99.90
7572;DHT22;3827;49.928;8.548;2023-12-22T13:29:03;9.40;99.90
7572;DHT22;3827;49.928;8.548;2023-12-22T13:31:30;9.40;99.90
7572;DHT22;3827;49.928;8.548;2023-12-22T13:33:58;9.40;99.90
7572;DHT22;3827;49.928;8.548;2023-12-22T13:36:25;9.40;99.90
7572;DHT22;3827;49.928;8.548;2023-12-22T13:38:52;9.50;99.90
7572;DHT22;3827;49.928;8.548;2023-12-22T13:41:20;9.60;99.90
7572;DHT22;3827;49.928;8.548;2023-12-22T13:43:47;9.50;99.90
7572;DHT22;3827;49.928;8.548;2023-12-22T13:46:14;9.90;99.90
7572;DHT22;3827;49.928;8.548;2023-12-22T13:48:41;10.50;99.90
7572;DHT22;3827;49.928;8.548;2023-12-22T13:51:08;9.50;99.90
7572;DHT22;3827;49.928;8.548;2023-12-22T13:53:35;9.50;99.90
7572;DHT22;3827;49.928;8.548;2023-12-22T13:56:12;9.50;99.90
7572;DHT22;3827;49.928;8.548;2023-12-22T13:58:45;9.40;99.90
7572;DHT22;3827;49.928;8.548;2023-12-22T14:01:16;9.50;99.90
7572;DHT22;3827;49.928;8.548;2023-12-22T14:03:43;10.90;99.90
7572;DHT22;3827;49.928;8.548;2023-12-22T14:06:11;9.50;99.90
7572;DHT22;3827;49.928;8.548;2023-12-22T14:08:39;9.50;99.90
7572;DHT22;3827;49.928;8.548;2023-12-22T14:11:07;9.60;99.90
7572;DHT22;3827;49.928;8.548;2023-12-22T14:13:34;9.60;99.90
7572;DHT22;3827;49.928;8.548;2023-12-22T14:16:06;9.50;99.90
7572;DHT22;3827;49.928;8.548;2023-12-22T14:18:33;9.70;99.90
7572;DHT22;3827;49.928;8.548;2023-12-22T14:20:59;9.60;99.90
7572;DHT22;3827;49.928;8.548;2023-12-22T14:23:26;9.60;99.90
7572;DHT22;3827;49.928;8.548;2023-12-22T14:25:53;9.60;99.90
7572;DHT22;3827;49.928;8.548;2023-12-22T14:28:20;9.60;99.90
7572;DHT22;3827;49.928;8.548;2023-12-22T14:30:47;9.60;99.90
7572;DHT22;3827;49.928;8.548;2023-12-22T14:33:15;9.60;99.90
7572;DHT22;3827;49.928;8.548;2023-12-22T14:35:42;9.60;99.90
7572;DHT22;3827;49.928;8.548;2023-12-22T14:38:08;9.60;99.90
7572;DHT22;3827;49.928;8.548;2023-12-22T14:40:35;9.70;99.90
7572;DHT22;3827;49.928;8.548;2023-12-22T14:43:02;9.70;99.90
7572;DHT22;3827;49.928;8.548;2023-12-22T14:45:29;9.70;99.90
7572;DHT22;3827;49.928;8.548;2023-12-22T14:47:56;9.70;99.90
7572;DHT22;3827;49.928;8.548;2023-12-22T14:50:24;9.70;99.90
7572;DHT22;3827;49.928;8.548;2023-12-22T14:52:50;9.90;99.90
7572;DHT22;3827;49.928;8.548;2023-12-22T14:55:17;9.90;99.90
7572;DHT22;3827;49.928;8.548;2023-12-22T14:57:45;9.80;99.90
7572;DHT22;3827;49.928;8.548;2023-12-22T15:00:13;9.90;99.90
7572;DHT22;3827;49.928;8.548;2023-12-22T15:02:40;9.90;99.90
7572;DHT22;3827;49.928;8.548;2023-12-22T15:05:07;9.80;99.90
7572;DHT22;3827;49.928;8.548;2023-12-22T15:07:36;9.90;99.90
7572;DHT22;3827;49.928;8.548;2023-12-22T15:10:03;9.80;99.90
7572;DHT22;3827;49.928;8.548;2023-12-22T15:12:31;9.70;99.90
7572;DHT22;3827;49.928;8.548;2023-12-22T15:15:02;9.70;99.90
7572;DHT22;3827;49.928;8.548;2023-12-22T15:17:29;9.70;99.90
7572;DHT22;3827;49.928;8.548;2023-12-22T15:19:56;9.80;99.90
7572;DHT22;3827;49.928;8.548;2023-12-22T15:22:23;9.80;99.90
7572;DHT22;3827;49.928;8.548;2023-12-22T15:24:52;9.70;99.90
7572;DHT22;3827;49.928;8.548;2023-12-22T15:27:18;9.80;99.90
7572;DHT22;3827;49.928;8.548;2023-12-22T15:29:45;10.40;99.90
7572;DHT22;3827;49.928;8.548;2023-12-22T15:32:13;9.90;99.90
7572;DHT22;3827;49.928;8.548;2023-12-22T15:34:41;9.90;99.90
7572;DHT22;3827;49.928;8.548;2023-12-22T15:37:08;9.90;99.90
7572;DHT22;3827;49.928;8.548;2023-12-22T15:39:35;9.90;99.90
7572;DHT22;3827;49.928;8.548;2023-12-22T15:42:04;9.90;99.90
7572;DHT22;3827;49.928;8.548;2023-12-22T15:44:31;9.90;99.90
7572;DHT22;3827;49.928;8.548;2023-12-22T15:46:58;9.90;99.90
7572;DHT22;3827;49.928;8.548;2023-12-22T15:49:25;9.90;99.90
7572;DHT22;3827;49.928;8.548;2023-12-22T15:51:53;9.90;99.90
7572;DHT22;3827;49.928;8.548;2023-12-22T15:54:21;9.90;99.90
7572;DHT22;3827;49.928;8.548;2023-12-22T15:56:48;10.00;99.90
7572;DHT22;3827;49.928;8.548;2023-12-22T15:59:16;9.80;99.90
7572;DHT22;3827;49.928;8.548;2023-12-22T16:01:43;10.30;99.90
7572;DHT22;3827;49.928;8.548;2023-12-22T16:04:10;9.80;99.90
7572;DHT22;3827;49.928;8.548;2023-12-22T16:06:38;9.80;99.90
7572;DHT22;3827;49.928;8.548;2023-12-22T16:09:04;9.80;99.90
7572;DHT22;3827;49.928;8.548;2023-12-22T16:11:31;9.80;99.90
7572;DHT22;3827;49.928;8.548;2023-12-22T16:13:58;10.10;99.90
7572;DHT22;3827;49.928;8.548;2023-12-22T16:16:26;9.70;99.90
7572;DHT22;3827;49.928;8.548;2023-12-22T16:18:53;9.80;99.90
7572;DHT22;3827;49.928;8.548;2023-12-22T16:21:19;9.80;99.90
7572;DHT22;3827;49.928;8.548;2023-12-22T16:23:46;9.70;99.90